SWA3694 KORF-KBWI
Flight info
| Callsign | SWA3694 |
|---|---|
| Flight time | 0h 32m |
| Altitude | 27000 |
| Route | NUTIY1 THHMP RAVNN8 |
| Aircraft | B738/M-SADE2E3GIJ4RWZ/LB1D1 |
Departure
| Time | 2026-05-03 23:02 |
|---|---|
| Airport | Norfolk International Airport (KORF) |
Arrival
| Time | 2026-05-03 23:35 |
|---|---|
| Airport | Baltimore/Washington International Thurgood Marshall Airport (KBWI) |
| Time | Latitude | Longitude | Altitude | Speed | Heading |
|---|---|---|---|---|---|
| 2026-05-03 22:31 | 36.89967 | -76.20234 | 23 ft | 0 kts | 191° |
| 2026-05-03 22:52 | 36.89976 | -76.20232 | 23 ft | 2 kts | 191° |
| 2026-05-03 22:53 | 36.89990 | -76.20229 | 23 ft | 2 kts | 191° |
| 2026-05-03 22:53 | 36.90004 | -76.20225 | 22 ft | 2 kts | 191° |
| 2026-05-03 22:53 | 36.90017 | -76.20222 | 22 ft | 1 kts | 172° |
| 2026-05-03 22:53 | 36.90027 | -76.20229 | 22 ft | 1 kts | 112° |
| 2026-05-03 22:54 | 36.90028 | -76.20242 | 22 ft | 0 kts | 90° |
| 2026-05-03 22:54 | 36.90028 | -76.20245 | 22 ft | 0 kts | 93° |
| 2026-05-03 22:57 | 36.90023 | -76.20216 | 22 ft | 7 kts | 102° |
| 2026-05-03 22:58 | 36.90009 | -76.20119 | 22 ft | 13 kts | 99° |
| 2026-05-03 22:58 | 36.89992 | -76.20002 | 26 ft | 13 kts | 101° |
| 2026-05-03 22:58 | 36.89968 | -76.19885 | 25 ft | 14 kts | 116° |
| 2026-05-03 22:58 | 36.89933 | -76.19778 | 25 ft | 11 kts | 90° |
| 2026-05-03 22:59 | 36.89984 | -76.19704 | 23 ft | 12 kts | 38° |
| 2026-05-03 22:59 | 36.90069 | -76.19621 | 21 ft | 18 kts | 38° |
| 2026-05-03 22:59 | 36.90181 | -76.19531 | 19 ft | 20 kts | 27° |
| 2026-05-03 22:59 | 36.90294 | -76.19446 | 17 ft | 16 kts | 38° |
| 2026-05-03 23:00 | 36.90377 | -76.19365 | 16 ft | 14 kts | 36° |
| 2026-05-03 23:00 | 36.90463 | -76.19281 | 16 ft | 17 kts | 38° |
| 2026-05-03 23:00 | 36.90570 | -76.19181 | 14 ft | 19 kts | 38° |
| 2026-05-03 23:00 | 36.90604 | -76.19064 | 13 ft | 14 kts | 121° |
| 2026-05-03 23:01 | 36.90546 | -76.18973 | 13 ft | 12 kts | 153° |
| 2026-05-03 23:01 | 36.90446 | -76.19035 | 13 ft | 27 kts | 219° |
| 2026-05-03 23:01 | 36.90114 | -76.19356 | 18 ft | 92 kts | 218° |
| 2026-05-03 23:01 | 36.89458 | -76.20000 | 28 ft | 145 kts | 218° |
| 2026-05-03 23:02 | 36.88551 | -76.20851 | 271 ft | 169 kts | 218° |
| 2026-05-03 23:02 | 36.87623 | -76.21683 | 977 ft | 166 kts | 218° |
| 2026-05-03 23:02 | 36.86666 | -76.22538 | 1600 ft | 180 kts | 218° |
| 2026-05-03 23:02 | 36.85606 | -76.23472 | 2300 ft | 197 kts | 218° |
| 2026-05-03 23:03 | 36.84455 | -76.24545 | 3008 ft | 217 kts | 227° |
| 2026-05-03 23:03 | 36.83714 | -76.26208 | 3654 ft | 236 kts | 262° |
| 2026-05-03 23:03 | 36.83991 | -76.28239 | 4528 ft | 250 kts | 298° |
| 2026-05-03 23:03 | 36.85271 | -76.29710 | 5569 ft | 263 kts | 332° |
| 2026-05-03 23:04 | 36.86997 | -76.30462 | 6646 ft | 270 kts | 336° |
| 2026-05-03 23:04 | 36.88647 | -76.31539 | 7695 ft | 272 kts | 322° |
| 2026-05-03 23:04 | 36.90179 | -76.32878 | 8735 ft | 277 kts | 321° |
| 2026-05-03 23:04 | 36.91742 | -76.34269 | 9754 ft | 282 kts | 320° |
| 2026-05-03 23:05 | 36.93302 | -76.35760 | 10667 ft | 288 kts | 313° |
| 2026-05-03 23:05 | 36.94497 | -76.37804 | 11090 ft | 304 kts | 289° |
| 2026-05-03 23:05 | 36.94825 | -76.40470 | 11519 ft | 322 kts | 266° |
| 2026-05-03 23:05 | 36.94687 | -76.43339 | 12087 ft | 342 kts | 265° |
| 2026-05-03 23:06 | 36.94620 | -76.46351 | 12945 ft | 353 kts | 267° |
| 2026-05-03 23:06 | 36.94598 | -76.49410 | 13903 ft | 359 kts | 267° |
| 2026-05-03 23:06 | 36.94718 | -76.52558 | 14870 ft | 367 kts | 275° |
| 2026-05-03 23:06 | 36.95406 | -76.55658 | 15785 ft | 379 kts | 290° |
| 2026-05-03 23:07 | 36.96872 | -76.58442 | 16709 ft | 391 kts | 305° |
| 2026-05-03 23:07 | 36.98630 | -76.61025 | 17583 ft | 396 kts | 306° |
| 2026-05-03 23:07 | 37.00391 | -76.63663 | 18413 ft | 401 kts | 305° |
| 2026-05-03 23:07 | 37.02159 | -76.66357 | 19234 ft | 406 kts | 304° |
| 2026-05-03 23:08 | 37.03967 | -76.69090 | 20020 ft | 412 kts | 304° |
| 2026-05-03 23:08 | 37.05812 | -76.71864 | 20795 ft | 417 kts | 304° |
| 2026-05-03 23:08 | 37.07659 | -76.74641 | 21528 ft | 422 kts | 304° |
| 2026-05-03 23:08 | 37.09544 | -76.77479 | 22246 ft | 427 kts | 304° |
| 2026-05-03 23:09 | 37.11440 | -76.80334 | 22909 ft | 432 kts | 303° |
| 2026-05-03 23:09 | 37.13356 | -76.83221 | 23591 ft | 436 kts | 303° |
| 2026-05-03 23:09 | 37.15319 | -76.86180 | 24258 ft | 440 kts | 303° |
| 2026-05-03 23:09 | 37.17260 | -76.89108 | 24877 ft | 445 kts | 303° |
| 2026-05-03 23:10 | 37.19232 | -76.92082 | 25723 ft | 443 kts | 303° |
| 2026-05-03 23:10 | 37.20538 | -76.94048 | 26351 ft | 439 kts | 302° |
| 2026-05-03 23:10 | 37.23110 | -76.97932 | 27099 ft | 438 kts | 302° |
| 2026-05-03 23:10 | 37.25056 | -77.00886 | 27077 ft | 445 kts | 302° |
| 2026-05-03 23:11 | 37.27018 | -77.03854 | 27076 ft | 437 kts | 302° |
| 2026-05-03 23:11 | 37.28960 | -77.06790 | 27072 ft | 434 kts | 302° |
| 2026-05-03 23:11 | 37.30884 | -77.09709 | 27070 ft | 434 kts | 302° |
| 2026-05-03 23:11 | 37.32821 | -77.12620 | 27068 ft | 437 kts | 304° |
| 2026-05-03 23:12 | 37.34949 | -77.15339 | 27067 ft | 443 kts | 309° |
| 2026-05-03 23:12 | 37.37212 | -77.17929 | 27066 ft | 445 kts | 310° |
| 2026-05-03 23:12 | 37.39495 | -77.20560 | 27065 ft | 444 kts | 309° |
| 2026-05-03 23:12 | 37.41752 | -77.23212 | 27064 ft | 444 kts | 309° |
| 2026-05-03 23:13 | 37.44106 | -77.25735 | 27063 ft | 449 kts | 315° |
| 2026-05-03 23:13 | 37.46723 | -77.27821 | 27062 ft | 445 kts | 326° |
| 2026-05-03 23:13 | 37.49587 | -77.29205 | 27065 ft | 441 kts | 338° |
| 2026-05-03 23:13 | 37.52585 | -77.29973 | 27056 ft | 447 kts | 345° |
| 2026-05-03 23:14 | 37.55674 | -77.30242 | 26381 ft | 459 kts | 357° |
| 2026-05-03 23:14 | 37.58868 | -77.29679 | 25636 ft | 466 kts | 7° |
| 2026-05-03 23:14 | 37.62006 | -77.28836 | 25004 ft | 465 kts | 7° |
| 2026-05-03 23:14 | 37.65182 | -77.28042 | 24331 ft | 464 kts | 6° |
| 2026-05-03 23:15 | 37.68293 | -77.27309 | 23668 ft | 463 kts | 6° |
| 2026-05-03 23:15 | 37.71442 | -77.26562 | 23104 ft | 459 kts | 7° |
| 2026-05-03 23:15 | 37.74508 | -77.25790 | 23052 ft | 447 kts | 7° |
| 2026-05-03 23:15 | 37.77573 | -77.24987 | 23064 ft | 455 kts | 7° |
| 2026-05-03 23:16 | 37.80673 | -77.24181 | 23061 ft | 460 kts | 7° |
| 2026-05-03 23:16 | 37.83813 | -77.23366 | 23062 ft | 460 kts | 7° |
| 2026-05-03 23:16 | 37.86952 | -77.22549 | 23063 ft | 460 kts | 7° |
| 2026-05-03 23:16 | 37.90066 | -77.21739 | 23064 ft | 459 kts | 7° |
| 2026-05-03 23:17 | 37.93183 | -77.20928 | 23063 ft | 459 kts | 7° |
| 2026-05-03 23:17 | 37.96304 | -77.20116 | 23058 ft | 459 kts | 7° |
| 2026-05-03 23:17 | 37.99424 | -77.19303 | 23054 ft | 459 kts | 7° |
| 2026-05-03 23:17 | 38.02534 | -77.18493 | 23050 ft | 459 kts | 7° |
| 2026-05-03 23:18 | 38.05654 | -77.17679 | 23047 ft | 459 kts | 7° |
| 2026-05-03 23:18 | 38.08766 | -77.16866 | 22870 ft | 456 kts | 7° |
| 2026-05-03 23:18 | 38.11829 | -77.16063 | 22277 ft | 454 kts | 7° |
| 2026-05-03 23:18 | 38.14926 | -77.15253 | 21620 ft | 452 kts | 7° |
| 2026-05-03 23:19 | 38.17966 | -77.14457 | 20961 ft | 451 kts | 7° |
| 2026-05-03 23:19 | 38.21026 | -77.13655 | 20290 ft | 449 kts | 7° |
| 2026-05-03 23:19 | 38.24062 | -77.12859 | 19620 ft | 447 kts | 7° |
| 2026-05-03 23:19 | 38.27080 | -77.12067 | 18952 ft | 445 kts | 7° |
| 2026-05-03 23:20 | 38.30087 | -77.11277 | 18288 ft | 443 kts | 8° |
| 2026-05-03 23:20 | 38.33093 | -77.10437 | 17616 ft | 442 kts | 11° |
| 2026-05-03 23:20 | 38.36016 | -77.09230 | 16936 ft | 443 kts | 18° |
| 2026-05-03 23:20 | 38.38763 | -77.07546 | 16296 ft | 442 kts | 28° |
| 2026-05-03 23:21 | 38.41313 | -77.05381 | 15653 ft | 440 kts | 33° |
| 2026-05-03 23:21 | 38.43780 | -77.03140 | 15004 ft | 437 kts | 33° |
| 2026-05-03 23:21 | 38.46245 | -77.00946 | 14359 ft | 434 kts | 33° |
| 2026-05-03 23:21 | 38.48698 | -76.98776 | 13707 ft | 431 kts | 33° |
| 2026-05-03 23:22 | 38.53573 | -76.94438 | 12396 ft | 424 kts | 33° |
| 2026-05-03 23:22 | 38.55854 | -76.92169 | 11940 ft | 411 kts | 40° |
| 2026-05-03 23:22 | 38.57882 | -76.89757 | 11540 ft | 391 kts | 43° |
| 2026-05-03 23:23 | 38.59827 | -76.87394 | 11000 ft | 377 kts | 42° |
| 2026-05-03 23:23 | 38.61702 | -76.85150 | 10554 ft | 362 kts | 41° |
| 2026-05-03 23:23 | 38.63482 | -76.83021 | 10346 ft | 342 kts | 41° |
| 2026-05-03 23:23 | 38.65162 | -76.81004 | 10225 ft | 321 kts | 41° |
| 2026-05-03 23:24 | 38.66759 | -76.79088 | 9941 ft | 309 kts | 41° |
| 2026-05-03 23:24 | 38.68288 | -76.77254 | 9564 ft | 301 kts | 41° |
| 2026-05-03 23:24 | 38.69792 | -76.75446 | 9202 ft | 294 kts | 41° |
| 2026-05-03 23:24 | 38.71067 | -76.73424 | 8943 ft | 290 kts | 58° |
| 2026-05-03 23:25 | 38.72020 | -76.71187 | 8660 ft | 287 kts | 60° |
| 2026-05-03 23:25 | 38.72984 | -76.68960 | 8325 ft | 286 kts | 59° |
| 2026-05-03 23:25 | 38.73956 | -76.66741 | 7985 ft | 285 kts | 59° |
| 2026-05-03 23:25 | 38.74916 | -76.64537 | 7641 ft | 284 kts | 59° |
| 2026-05-03 23:26 | 38.75873 | -76.62336 | 7287 ft | 284 kts | 59° |
| 2026-05-03 23:26 | 38.76836 | -76.60125 | 6930 ft | 283 kts | 58° |
| 2026-05-03 23:26 | 38.78054 | -76.58207 | 6585 ft | 278 kts | 34° |
| 2026-05-03 23:26 | 38.79794 | -76.57246 | 6249 ft | 269 kts | 6° |
| 2026-05-03 23:27 | 38.81613 | -76.56863 | 5914 ft | 268 kts | 8° |
| 2026-05-03 23:27 | 38.83434 | -76.56313 | 5573 ft | 268 kts | 9° |
| 2026-05-03 23:27 | 38.85219 | -76.55955 | 5385 ft | 257 kts | 357° |
| 2026-05-03 23:27 | 38.86943 | -76.56048 | 5315 ft | 239 kts | 352° |
| 2026-05-03 23:28 | 38.88554 | -76.56158 | 5234 ft | 229 kts | 353° |
| 2026-05-03 23:28 | 38.90159 | -76.56265 | 5152 ft | 231 kts | 353° |
| 2026-05-03 23:28 | 38.91742 | -76.56372 | 5025 ft | 225 kts | 353° |
| 2026-05-03 23:28 | 38.93280 | -76.56470 | 4751 ft | 224 kts | 353° |
| 2026-05-03 23:29 | 38.94848 | -76.56564 | 4473 ft | 223 kts | 353° |
| 2026-05-03 23:29 | 38.96389 | -76.56657 | 4210 ft | 221 kts | 353° |
| 2026-05-03 23:29 | 38.97883 | -76.56747 | 3940 ft | 213 kts | 353° |
| 2026-05-03 23:29 | 38.99342 | -76.56837 | 3684 ft | 205 kts | 353° |
| 2026-05-03 23:30 | 39.00726 | -76.56921 | 3441 ft | 195 kts | 353° |
| 2026-05-03 23:30 | 39.02018 | -76.57000 | 3218 ft | 178 kts | 352° |
| 2026-05-03 23:30 | 39.03210 | -76.57074 | 3008 ft | 165 kts | 352° |
| 2026-05-03 23:30 | 39.04340 | -76.57145 | 2823 ft | 162 kts | 352° |
| 2026-05-03 23:31 | 39.05417 | -76.57231 | 2663 ft | 149 kts | 348° |
| 2026-05-03 23:31 | 39.06425 | -76.57471 | 2521 ft | 147 kts | 339° |
| 2026-05-03 23:31 | 39.07344 | -76.57957 | 2320 ft | 142 kts | 328° |
| 2026-05-03 23:31 | 39.08191 | -76.58574 | 2135 ft | 140 kts | 324° |
| 2026-05-03 23:32 | 39.09013 | -76.59257 | 1950 ft | 140 kts | 322° |
| 2026-05-03 23:32 | 39.09809 | -76.59962 | 1767 ft | 139 kts | 321° |
| 2026-05-03 23:32 | 39.10598 | -76.60681 | 1584 ft | 139 kts | 320° |
| 2026-05-03 23:32 | 39.11385 | -76.61417 | 1406 ft | 138 kts | 318° |
| 2026-05-03 23:33 | 39.12132 | -76.62186 | 1221 ft | 137 kts | 317° |
| 2026-05-03 23:33 | 39.12873 | -76.62924 | 1023 ft | 136 kts | 320° |
| 2026-05-03 23:33 | 39.13650 | -76.63657 | 835 ft | 138 kts | 320° |
| 2026-05-03 23:33 | 39.14407 | -76.64381 | 655 ft | 135 kts | 321° |
| 2026-05-03 23:34 | 39.15181 | -76.65084 | 509 ft | 137 kts | 321° |
| 2026-05-03 23:34 | 39.15957 | -76.65806 | 323 ft | 140 kts | 321° |
| 2026-05-03 23:34 | 39.16740 | -76.66531 | 146 ft | 131 kts | 321° |
| 2026-05-03 23:34 | 39.17329 | -76.67104 | 144 ft | 73 kts | 323° |
| 2026-05-03 23:35 | 39.17601 | -76.67336 | 140 ft | 32 kts | 328° |
| 2026-05-03 23:35 | 39.17753 | -76.67458 | 138 ft | 20 kts | 332° |
| 2026-05-03 23:35 | 39.17862 | -76.67413 | 139 ft | 16 kts | 56° |
| 2026-05-03 23:35 | 39.17871 | -76.67310 | 142 ft | 11 kts | 131° |
| 2026-05-03 23:36 | 39.17795 | -76.67240 | 142 ft | 14 kts | 148° |
| 2026-05-03 23:36 | 39.17707 | -76.67152 | 144 ft | 17 kts | 144° |
| 2026-05-03 23:36 | 39.17610 | -76.67058 | 146 ft | 16 kts | 142° |
| 2026-05-03 23:36 | 39.17542 | -76.66962 | 147 ft | 13 kts | 112° |
| 2026-05-03 23:37 | 39.17531 | -76.66841 | 147 ft | 14 kts | 91° |
| 2026-05-03 23:37 | 39.17591 | -76.66780 | 149 ft | 11 kts | 5° |
| 2026-05-03 23:37 | 39.17658 | -76.66782 | 150 ft | 8 kts | 340° |
| 2026-05-03 23:37 | 39.17699 | -76.66818 | 150 ft | 6 kts | 324° |
| 2026-05-03 23:38 | 39.17732 | -76.66846 | 150 ft | 4 kts | 324° |
| 2026-05-03 23:38 | 39.17755 | -76.66869 | 150 ft | 3 kts | 317° |
| 2026-05-03 23:38 | 39.17754 | -76.66911 | 150 ft | 6 kts | 243° |
| 2026-05-03 23:38 | 39.17740 | -76.66937 | 150 ft | 2 kts | 235° |
| 2026-05-03 23:39 | 39.17736 | -76.66945 | 150 ft | 0 kts | 234° |
| 2026-05-03 23:39 | 39.17735 | -76.66946 | 149 ft | 0 kts | 234° |